Time;durP1;ratioP1;P1;durP2;ratioP2;P2;SDS_P1;SDS_P2;PMS_P1;PMS_P2;Temp;Humidity;BMP_temperature;BMP_pressure;BME280_temperature;BME280_humidity;BME280_pressure;Samples;Min_cycle;Max_cycle;Signal;HPM_P1;HPM_P2
2023/03/26 00:01:14;;;;;;;26.38;10.85;;;;;;;9.81;94.43;100607.06;5051835;28;20048;-41
2023/03/26 00:03:40;;;;;;;29.02;10.45;;;;;;;9.80;94.15;100605.44;5051964;28;20036;-42
2023/03/26 00:06:08;;;;;;;30.55;10.50;;;;;;;9.81;93.72;100609.81;5051702;28;20037;-42
2023/03/26 00:08:35;;;;;;;26.23;10.50;;;;;;;9.84;94.01;100605.63;5051667;28;20060;-43
2023/03/26 00:11:02;;;;;;;28.27;10.68;;;;;;;9.89;94.37;100605.50;5051794;28;20025;-42
2023/03/26 00:13:27;;;;;;;28.52;10.68;;;;;;;9.90;93.76;100611.88;5051661;28;20044;-42
2023/03/26 00:15:53;;;;;;;29.23;10.60;;;;;;;9.87;93.26;100613.28;5051845;28;20043;-41
2023/03/26 00:18:20;;;;;;;31.02;10.90;;;;;;;9.80;92.57;100612.88;5045620;28;20299;-42
2023/03/26 00:20:46;;;;;;;29.35;10.63;;;;;;;9.77;92.70;100617.06;5048410;28;20083;-41
2023/03/26 00:23:12;;;;;;;27.77;10.43;;;;;;;9.78;92.86;100609.59;5053487;28;20064;-41
2023/03/26 00:25:40;;;;;;;29.13;10.30;;;;;;;9.79;93.62;100603.78;5055784;28;20025;-41
2023/03/26 00:28:06;;;;;;;30.10;10.50;;;;;;;9.74;92.51;100606.63;5055885;28;20040;-42
2023/03/26 00:30:32;;;;;;;26.67;9.90;;;;;;;9.72;93.62;100613.59;5055785;28;20024;-40
2023/03/26 00:32:57;;;;;;;30.55;10.50;;;;;;;9.73;93.81;100601.41;5054368;28;20076;-41
2023/03/26 00:35:23;;;;;;;28.63;10.18;;;;;;;9.70;93.25;100597.34;5055755;28;20036;-41
2023/03/26 00:37:50;;;;;;;30.08;10.32;;;;;;;9.70;93.07;100599.25;5054324;28;20071;-41
2023/03/26 00:40:15;;;;;;;32.72;9.85;;;;;;;9.71;93.47;100592.63;5055472;28;20064;-41
2023/03/26 00:42:41;;;;;;;28.13;10.10;;;;;;;9.82;93.35;100580.25;5055063;28;20055;-42
2023/03/26 00:45:07;;;;;;;28.27;10.10;;;;;;;9.78;91.87;100582.81;5055410;28;20025;-41
2023/03/26 00:47:33;;;;;;;28.05;9.52;;;;;;;9.80;92.47;100577.78;5055164;28;20044;-41
2023/03/26 00:49:58;;;;;;;26.95;9.70;;;;;;;9.77;92.27;100575.63;5055239;28;20079;-41
2023/03/26 00:52:23;;;;;;;26.38;9.98;;;;;;;9.75;91.84;100574.31;5055058;28;20029;-41
2023/03/26 00:54:52;;;;;;;26.92;9.85;;;;;;;9.72;91.36;100577.69;5054781;28;20047;-40
2023/03/26 00:57:20;;;;;;;26.38;9.52;;;;;;;9.78;92.47;100577.28;5053972;28;20040;-42
2023/03/26 00:59:46;;;;;;;25.55;9.65;;;;;;;9.79;90.77;100583.59;5055387;28;20098;-42
2023/03/26 01:02:17;;;;;;;25.52;9.40;;;;;;;9.75;91.31;100574.31;5054339;28;20506;-42
2023/03/26 01:05:44;;;;;;;30.15;10.23;;;;;;;9.80;91.36;100575.03;5054841;28;20112;-41
2023/03/26 01:08:24;;;;;;;28.08;10.18;;;;;;;9.87;91.91;100568.25;5052500;28;20033;-42
2023/03/26 01:10:51;;;;;;;26.40;9.65;;;;;;;9.88;91.48;100564.38;5052617;28;20067;-45
2023/03/26 01:13:21;;;;;;;26.45;9.60;;;;;;;9.77;90.72;100561.03;5053971;28;20056;-42
2023/03/26 01:15:49;;;;;;;32.83;10.00;;;;;;;9.67;91.40;100557.34;5054638;28;20132;-41
2023/03/26 01:18:17;;;;;;;26.83;9.30;;;;;;;9.75;93.61;100546.69;5049774;28;20249;-41
2023/03/26 01:20:45;;;;;;;27.02;10.23;;;;;;;9.81;92.45;100543.53;5051055;28;20053;-41
2023/03/26 01:23:14;;;;;;;26.50;9.98;;;;;;;9.90;92.44;100531.75;5054792;28;20439;-42
2023/03/26 01:25:48;;;;;;;26.35;9.55;;;;;;;9.98;92.80;100526.28;5054689;28;20112;-42
2023/03/26 01:28:17;;;;;;;28.85;9.60;;;;;;;10.05;91.95;100533.34;5037517;28;20052;-42
2023/03/26 01:30:57;;;;;;;23.33;9.68;;;;;;;10.07;91.31;100525.53;5054522;28;20057;-42
2023/03/26 01:33:42;;;;;;;26.58;9.02;;;;;;;10.14;90.96;100526.75;5054640;28;20025;-42
2023/03/26 01:36:15;;;;;;;29.70;9.60;;;;;;;10.12;90.08;100522.69;5052690;28;20048;-41
2023/03/26 01:38:52;;;;;;;27.13;9.80;;;;;;;10.18;90.89;100517.84;5054859;28;20082;-40
2023/03/26 01:41:50;;;;;;;28.25;9.88;;;;;;;10.22;90.01;100505.03;5052856;28;20476;-40
2023/03/26 01:44:33;;;;;;;24.52;10.30;;;;;;;10.20;89.87;100496.25;5053736;28;20510;-41
2023/03/26 01:47:00;;;;;;;26.23;9.50;;;;;;;10.13;90.11;100497.47;5054292;28;20047;-42
2023/03/26 01:49:29;;;;;;;27.83;10.43;;;;;;;10.08;90.29;100488.50;5052482;28;20036;-41
2023/03/26 01:51:56;;;;;;;28.40;9.70;;;;;;;10.08;89.47;100489.31;5052165;28;20017;-41
2023/03/26 01:54:26;;;;;;;26.77;9.68;;;;;;;10.10;90.28;100495.38;5052137;28;20029;-41
2023/03/26 01:57:16;;;;;;;25.58;9.15;;;;;;;10.11;88.84;100485.13;5053557;28;20028;-43
2023/03/26 02:00:10;;;;;;;29.08;9.98;;;;;;;10.02;88.21;100489.75;5052801;28;20033;-42
2023/03/26 02:02:37;;;;;;;27.35;10.20;;;;;;;10.07;90.33;100484.09;5054020;28;20063;-41
2023/03/26 02:05:14;;;;;;;25.70;9.40;;;;;;;10.06;90.51;100479.72;5054003;28;20098;-41
2023/03/26 02:08:08;;;;;;;27.77;10.40;;;;;;;10.02;88.59;100478.69;5053764;28;20061;-41
2023/03/26 02:10:46;;;;;;;27.58;9.57;;;;;;;9.90;89.09;100471.75;5053815;28;20037;-41
2023/03/26 02:13:12;;;;;;;23.42;9.80;;;;;;;9.88;90.43;100468.47;5052691;28;20025;-41
2023/03/26 02:15:39;;;;;;;25.38;9.55;;;;;;;9.76;88.68;100474.53;5053445;28;20384;-41
2023/03/26 02:18:05;;;;;;;28.30;9.18;;;;;;;9.69;88.96;100468.63;5050403;28;20120;-44
2023/03/26 02:20:31;;;;;;;28.35;9.88;;;;;;;9.71;89.89;100463.63;5049956;28;20475;-43
2023/03/26 02:22:56;;;;;;;26.45;10.18;;;;;;;9.73;90.22;100460.53;5052661;28;20029;-43
2023/03/26 02:25:23;;;;;;;26.08;9.80;;;;;;;9.62;89.91;100449.72;5053768;28;20032;-42
2023/03/26 02:27:50;;;;;;;25.02;9.90;;;;;;;9.65;90.94;100453.78;5053758;28;20025;-41
2023/03/26 02:30:24;;;;;;;25.73;9.48;;;;;;;9.66;90.61;100445.22;5053391;28;20037;-42
2023/03/26 02:32:51;;;;;;;24.88;9.32;;;;;;;9.73;90.85;100441.22;5052468;28;20074;-42
2023/03/26 02:35:16;;;;;;;24.23;9.13;;;;;;;9.68;90.08;100447.66;5053553;28;20100;-41
2023/03/26 02:37:45;;;;;;;25.85;10.00;;;;;;;9.78;91.12;100435.56;5053489;28;20155;-42
2023/03/26 02:40:11;;;;;;;24.63;9.73;;;;;;;9.74;89.03;100434.56;5053517;28;20032;-42
2023/03/26 02:42:37;;;;;;;26.73;9.68;;;;;;;9.74;89.91;100435.38;5053237;28;20384;-41
2023/03/26 02:45:04;;;;;;;26.55;10.35;;;;;;;9.78;90.20;100433.63;5053276;28;20107;-42
2023/03/26 02:47:30;;;;;;;22.98;9.45;;;;;;;9.79;90.47;100435.25;5052364;28;20079;-44
2023/03/26 02:49:55;;;;;;;23.77;9.48;;;;;;;9.76;90.09;100422.06;5053132;28;20064;-41
2023/03/26 02:52:20;;;;;;;24.40;9.82;;;;;;;9.81;90.34;100426.66;5052954;28;20503;-41
2023/03/26 02:54:46;;;;;;;25.58;9.50;;;;;;;9.80;89.67;100423.09;5053196;28;20068;-42
2023/03/26 02:57:11;;;;;;;26.05;9.70;;;;;;;9.78;89.51;100424.50;5053008;28;20392;-42
2023/03/26 02:59:37;;;;;;;25.98;10.02;;;;;;;9.80;90.14;100412.03;5052980;28;20364;-41
2023/03/26 03:02:02;;;;;;;28.10;10.10;;;;;;;9.81;89.60;100407.31;5052938;28;20025;-46
2023/03/26 03:04:27;;;;;;;24.00;9.65;;;;;;;9.80;89.69;100411.19;5052810;28;20025;-41
2023/03/26 03:06:56;;;;;;;24.85;9.40;;;;;;;9.77;89.09;100398.84;5052784;28;20021;-41
2023/03/26 03:09:23;;;;;;;26.33;10.30;;;;;;;9.79;89.85;100395.75;5053120;28;20059;-41
2023/03/26 03:11:50;;;;;;;24.05;9.68;;;;;;;9.80;89.67;100394.63;5052543;28;20024;-40
2023/03/26 03:14:16;;;;;;;22.20;9.70;;;;;;;9.79;90.34;100393.00;5052948;28;20115;-40
2023/03/26 03:16:41;;;;;;;23.67;10.05;;;;;;;9.81;90.46;100390.75;5051367;28;20452;-40
2023/03/26 03:19:06;;;;;;;25.50;10.40;;;;;;;9.78;89.72;100383.91;5043964;28;20029;-42
2023/03/26 03:21:32;;;;;;;22.70;10.15;;;;;;;9.78;90.21;100375.63;5052593;28;20053;-41
2023/03/26 03:23:57;;;;;;;25.27;10.35;;;;;;;9.81;90.13;100385.22;5051396;28;20021;-41
2023/03/26 03:26:26;;;;;;;26.70;9.80;;;;;;;9.86;90.40;100374.06;5052674;28;20021;-41
2023/03/26 03:28:55;;;;;;;26.17;10.00;;;;;;;9.86;90.03;100367.69;5052820;28;20028;-41
2023/03/26 03:31:21;;;;;;;22.65;9.73;;;;;;;9.86;89.92;100362.16;5051099;28;20048;-44
2023/03/26 03:33:46;;;;;;;25.42;10.15;;;;;;;9.91;90.32;100362.06;5052471;28;20052;-41
2023/03/26 03:36:20;;;;;;;25.92;10.00;;;;;;;9.90;88.50;100363.19;5052454;28;20039;-41
2023/03/26 03:38:47;;;;;;;23.75;9.70;;;;;;;9.83;89.43;100355.34;5052495;28;20040;-41
2023/03/26 03:41:12;;;;;;;21.73;9.45;;;;;;;9.86;90.40;100348.38;5052319;28;20041;-41
2023/03/26 03:43:37;;;;;;;27.35;10.13;;;;;;;9.86;91.25;100354.72;5052284;28;20039;-40
2023/03/26 03:46:03;;;;;;;26.85;9.93;;;;;;;9.79;88.66;100355.16;5052305;28;20032;-41
2023/03/26 03:48:28;;;;;;;27.65;10.20;;;;;;;9.62;88.19;100350.28;5052253;28;20114;-40
2023/03/26 03:50:55;;;;;;;26.70;10.27;;;;;;;9.57;89.09;100344.06;5050851;28;20044;-41
2023/03/26 03:53:24;;;;;;;22.58;9.40;;;;;;;9.66;91.21;100348.56;5052229;28;20021;-41
2023/03/26 03:55:52;;;;;;;27.50;10.50;;;;;;;9.73;90.50;100347.28;5050904;28;20029;-42
2023/03/26 03:58:21;;;;;;;22.90;9.68;;;;;;;9.75;89.94;100339.50;5051928;28;20171;-41
2023/03/26 04:00:50;;;;;;;27.15;10.45;;;;;;;9.83;91.27;100341.53;5050798;28;20036;-42
2023/03/26 04:03:17;;;;;;;23.88;9.80;;;;;;;9.84;91.23;100332.91;5051941;28;20131;-40
2023/03/26 04:05:48;;;;;;;23.05;10.07;;;;;;;9.84;90.88;100335.69;5051894;28;20040;-42
2023/03/26 04:08:16;;;;;;;26.15;10.15;;;;;;;9.88;91.05;100326.78;5051890;28;20092;-44
2023/03/26 04:10:43;;;;;;;24.08;10.38;;;;;;;9.94;91.46;100323.56;5051807;28;20021;-41
2023/03/26 04:13:13;;;;;;;23.00;9.90;;;;;;;9.92;90.30;100325.03;5050429;28;20162;-42
2023/03/26 04:15:40;;;;;;;23.73;9.70;;;;;;;9.84;89.70;100319.09;5051963;28;20021;-42
2023/03/26 04:18:09;;;;;;;24.55;9.93;;;;;;;9.86;91.19;100309.69;5049994;28;20037;-41
2023/03/26 04:20:37;;;;;;;24.08;9.40;;;;;;;9.90;91.53;100305.97;5046342;28;20141;-42
2023/03/26 04:23:03;;;;;;;24.98;10.32;;;;;;;10.02;92.07;100304.59;5051506;28;20499;-41
2023/03/26 04:25:29;;;;;;;23.42;9.52;;;;;;;9.91;90.62;100302.09;5050412;28;20063;-42
2023/03/26 04:27:57;;;;;;;22.23;9.30;;;;;;;9.94;91.62;100292.34;5051592;28;20464;-41
2023/03/26 04:30:22;;;;;;;23.58;9.65;;;;;;;9.95;91.54;100288.44;5051511;28;20079;-41
2023/03/26 04:32:48;;;;;;;24.60;9.75;;;;;;;10.01;91.53;100283.59;5051593;28;20025;-41
2023/03/26 04:35:15;;;;;;;25.40;9.77;;;;;;;9.99;91.99;100276.44;5050912;28;20037;-41
2023/03/26 04:37:43;;;;;;;21.60;9.27;;;;;;;10.08;91.90;100279.28;5051716;28;20112;-41
2023/03/26 04:40:15;;;;;;;22.02;9.13;;;;;;;10.03;91.25;100271.09;5051621;28;20037;-42
2023/03/26 04:42:44;;;;;;;21.70;9.32;;;;;;;9.96;90.61;100265.22;5050898;28;20029;-41
2023/03/26 04:45:12;;;;;;;24.85;9.75;;;;;;;9.94;91.31;100264.72;5050483;28;20025;-41
2023/03/26 04:47:38;;;;;;;20.70;9.70;;;;;;;10.01;92.27;100264.25;5049822;28;20388;-40
2023/03/26 04:50:08;;;;;;;21.40;8.93;;;;;;;10.06;92.76;100259.44;5051206;28;20028;-41
2023/03/26 04:52:34;;;;;;;23.55;9.48;;;;;;;10.06;91.49;100253.09;5051282;28;20124;-42
2023/03/26 04:55:00;;;;;;;20.08;9.05;;;;;;;10.09;92.09;100249.69;5051435;28;20100;-42
2023/03/26 04:57:33;;;;;;;21.00;8.88;;;;;;;10.14;92.22;100247.59;5049996;28;20487;-42
2023/03/26 04:59:59;;;;;;;26.75;10.02;;;;;;;10.18;92.43;100238.69;5051327;28;20488;-41
2023/03/26 05:02:25;;;;;;;21.50;10.00;;;;;;;10.19;92.28;100232.03;5051173;28;20036;-41
2023/03/26 05:04:50;;;;;;;23.58;10.27;;;;;;;10.20;92.09;100228.91;5051289;28;20061;-42
2023/03/26 05:07:19;;;;;;;21.90;9.40;;;;;;;10.16;91.95;100227.91;5051541;28;20025;-41
2023/03/26 05:09:44;;;;;;;22.92;9.82;;;;;;;10.08;91.00;100218.47;5052255;28;20059;-40
2023/03/26 05:12:10;;;;;;;20.60;9.27;;;;;;;10.11;92.98;100219.78;5054871;28;20029;-41
2023/03/26 05:14:35;;;;;;;19.92;9.13;;;;;;;10.06;91.60;100223.50;5054924;28;20503;-41
2023/03/26 05:17:05;;;;;;;22.23;9.25;;;;;;;10.04;92.17;100213.91;5054507;28;20043;-42
2023/03/26 05:19:31;;;;;;;20.30;9.45;;;;;;;10.05;92.99;100212.78;5045656;28;20033;-41
2023/03/26 05:21:56;;;;;;;22.48;10.00;;;;;;;10.00;92.75;100202.66;5054636;28;20048;-42
2023/03/26 05:24:23;;;;;;;21.67;9.63;;;;;;;10.03;92.89;100201.22;5054762;28;20057;-40
2023/03/26 05:26:49;;;;;;;20.33;9.00;;;;;;;9.97;92.15;100195.81;5054723;28;20020;-40
2023/03/26 05:29:16;;;;;;;19.45;9.52;;;;;;;10.01;92.73;100190.50;5054669;28;20025;-42
2023/03/26 05:31:41;;;;;;;22.15;9.30;;;;;;;10.01;93.07;100193.25;5053991;28;20029;-41
2023/03/26 05:34:07;;;;;;;18.77;8.93;;;;;;;10.01;92.64;100184.13;5054603;28;20033;-43
2023/03/26 05:36:32;;;;;;;22.05;9.45;;;;;;;10.02;92.84;100181.03;5053201;28;20039;-42
2023/03/26 05:38:57;;;;;;;19.52;8.75;;;;;;;10.05;92.43;100180.41;5054350;28;20029;-42
2023/03/26 05:41:23;;;;;;;21.25;9.85;;;;;;;10.07;92.68;100180.09;5054134;28;20037;-41
2023/03/26 05:43:48;;;;;;;22.67;9.50;;;;;;;10.04;92.52;100180.75;5052275;28;20025;-41
2023/03/26 05:46:14;;;;;;;21.73;9.45;;;;;;;10.02;92.99;100169.97;5054282;28;20035;-42
2023/03/26 05:48:40;;;;;;;21.42;9.05;;;;;;;10.02;92.58;100172.75;5054330;28;20143;-42
2023/03/26 05:51:05;;;;;;;22.65;9.40;;;;;;;10.05;93.36;100171.31;5054269;28;20112;-42
2023/03/26 05:53:31;;;;;;;22.70;10.00;;;;;;;9.99;91.91;100165.91;5054243;28;20098;-42
2023/03/26 05:55:59;;;;;;;20.70;9.15;;;;;;;10.04;93.04;100155.88;5054277;28;20029;-41
2023/03/26 05:58:27;;;;;;;20.90;8.68;;;;;;;10.03;94.00;100163.31;5054652;28;20434;-43
2023/03/26 06:00:58;;;;;;;20.40;8.98;;;;;;;10.08;93.48;100157.66;5054110;28;20032;-43
2023/03/26 06:03:23;;;;;;;26.02;9.43;;;;;;;10.09;93.19;100161.25;5054404;28;20040;-42
2023/03/26 06:05:48;;;;;;;21.77;9.07;;;;;;;10.10;92.99;100152.66;5053662;28;20096;-42
2023/03/26 06:08:14;;;;;;;22.27;9.50;;;;;;;10.08;93.14;100154.91;5053997;28;20033;-42
2023/03/26 06:10:40;;;;;;;20.27;9.00;;;;;;;10.06;92.79;100145.31;5052552;28;20035;-41
2023/03/26 06:13:05;;;;;;;19.67;9.02;;;;;;;10.09;93.30;100153.78;5052504;28;20025;-42
2023/03/26 06:15:30;;;;;;;22.80;9.70;;;;;;;10.11;93.16;100154.25;5054066;28;20044;-40
2023/03/26 06:17:56;;;;;;;21.48;8.88;;;;;;;10.11;93.39;100145.97;5052490;28;20078;-41
2023/03/26 06:20:21;;;;;;;20.98;9.20;;;;;;;10.11;93.29;100145.97;5046312;28;20025;-41
2023/03/26 06:22:46;;;;;;;18.27;9.02;;;;;;;10.13;93.53;100142.91;5053810;28;20116;-40
2023/03/26 06:25:12;;;;;;;21.45;9.10;;;;;;;10.14;93.14;100134.28;5053709;28;20029;-41
2023/03/26 06:27:37;;;;;;;20.92;9.18;;;;;;;10.16;92.92;100139.47;5053638;28;20100;-40
2023/03/26 06:30:03;;;;;;;21.90;8.90;;;;;;;10.18;93.40;100141.94;5053537;28;20464;-41
2023/03/26 06:32:28;;;;;;;19.13;8.88;;;;;;;10.18;93.37;100139.16;5053351;28;20036;-42
2023/03/26 06:34:53;;;;;;;21.52;9.68;;;;;;;10.12;92.45;100139.31;5053163;28;20036;-41
2023/03/26 06:37:19;;;;;;;21.00;9.18;;;;;;;10.15;92.79;100135.91;5053396;28;20389;-42
2023/03/26 06:39:44;;;;;;;20.58;8.98;;;;;;;10.14;93.70;100133.47;5053596;28;20037;-42
2023/03/26 06:42:10;;;;;;;19.45;8.73;;;;;;;10.10;93.22;100136.06;5053577;28;20021;-41
2023/03/26 06:44:35;;;;;;;19.10;8.23;;;;;;;10.12;93.16;100136.53;5053462;28;20029;-41
2023/03/26 06:47:00;;;;;;;20.73;8.90;;;;;;;10.09;93.04;100131.66;5053397;28;20107;-42
2023/03/26 06:49:26;;;;;;;21.67;8.93;;;;;;;10.09;93.36;100139.13;5053160;28;20116;-42
2023/03/26 06:51:51;;;;;;;19.95;8.98;;;;;;;10.11;93.98;100123.84;5053314;28;20431;-42
2023/03/26 06:54:17;;;;;;;20.00;8.82;;;;;;;10.17;93.63;100132.81;5053310;28;20048;-41
2023/03/26 06:56:42;;;;;;;21.10;8.48;;;;;;;10.23;93.57;100130.72;5051943;28;20032;-42
2023/03/26 06:59:07;;;;;;;19.25;8.40;;;;;;;10.26;93.00;100124.56;5053317;28;20473;-41
2023/03/26 07:01:33;;;;;;;20.33;8.75;;;;;;;10.29;92.82;100126.69;5053167;28;20055;-42
2023/03/26 07:03:58;;;;;;;19.38;8.35;;;;;;;10.32;93.52;100130.75;5053120;28;20028;-41
2023/03/26 07:06:23;;;;;;;19.50;8.63;;;;;;;10.34;92.37;100131.25;5052457;28;20032;-41
2023/03/26 07:08:49;;;;;;;20.13;8.25;;;;;;;10.38;92.39;100129.47;5049474;28;20032;-41
2023/03/26 07:11:15;;;;;;;20.42;8.77;;;;;;;10.39;92.00;100128.34;5048503;28;20033;-40
2023/03/26 07:13:41;;;;;;;22.05;8.40;;;;;;;10.41;91.85;100126.88;5044493;28;20162;-41
2023/03/26 07:16:06;;;;;;;20.08;8.73;;;;;;;10.41;92.41;100124.13;5049389;28;20024;-41
2023/03/26 07:18:32;;;;;;;19.13;8.20;;;;;;;10.41;91.97;100120.56;5051142;28;20147;-46
2023/03/26 07:20:57;;;;;;;18.27;8.27;;;;;;;10.41;91.36;100117.78;5045178;28;20045;-42
2023/03/26 07:23:23;;;;;;;20.50;8.10;;;;;;;10.41;90.86;100113.06;5045192;28;20575;-41
2023/03/26 07:25:49;;;;;;;19.73;8.20;;;;;;;10.47;91.11;100113.72;5050505;28;20040;-41
2023/03/26 07:28:39;;;;;;;19.20;8.30;;;;;;;10.53;91.21;100115.19;5050495;28;20567;-41
2023/03/26 07:31:25;;;;;;;20.85;9.10;;;;;;;10.43;90.76;100113.56;5050388;28;20511;-41
2023/03/26 07:33:57;;;;;;;18.17;8.50;;;;;;;10.43;91.19;100105.25;5049971;28;20059;-43
2023/03/26 07:36:32;;;;;;;22.55;8.90;;;;;;;10.43;91.83;100108.03;5050353;28;20083;-42
2023/03/26 07:39:03;;;;;;;17.95;7.75;;;;;;;10.44;91.43;100109.66;5050628;28;20043;-41
2023/03/26 07:41:49;;;;;;;19.17;8.73;;;;;;;10.44;91.21;100108.81;5048861;28;20041;-42
2023/03/26 07:44:40;;;;;;;18.83;8.23;;;;;;;10.48;91.51;100109.00;5050432;28;20503;-41
2023/03/26 07:47:27;;;;;;;17.70;8.05;;;;;;;10.44;90.97;100106.88;5050053;28;20052;-41
2023/03/26 07:49:54;;;;;;;20.77;8.82;;;;;;;10.37;91.52;100098.25;5050095;28;20471;-42
2023/03/26 07:52:20;;;;;;;20.10;8.48;;;;;;;10.42;91.22;100108.34;5040886;28;20401;-41
2023/03/26 07:54:45;;;;;;;19.17;8.30;;;;;;;10.43;91.35;100101.69;5047058;28;20044;-42
2023/03/26 07:57:50;;;;;;;18.90;8.38;;;;;;;10.54;91.00;100102.97;5048329;28;20040;-41
2023/03/26 08:00:39;;;;;;;22.58;8.40;;;;;;;10.59;90.79;100093.72;5050120;28;20037;-43
2023/03/26 08:03:16;;;;;;;22.25;8.48;;;;;;;10.60;90.99;100084.28;5049985;28;20024;-41
2023/03/26 08:06:00;;;;;;;20.67;8.60;;;;;;;10.64;90.43;100087.19;5049804;28;20044;-42
2023/03/26 08:08:49;;;;;;;17.65;8.30;;;;;;;10.73;92.38;100088.00;5047357;28;20480;-42
2023/03/26 08:11:30;;;;;;;17.48;7.88;;;;;;;10.84;91.99;100088.53;5048678;28;20036;-41
2023/03/26 08:14:14;;;;;;;18.55;7.93;;;;;;;10.90;92.22;100087.19;5049510;28;20037;-41
2023/03/26 08:16:39;;;;;;;19.58;8.05;;;;;;;10.89;90.90;100089.16;5048393;28;20025;-41
2023/03/26 08:19:06;;;;;;;19.73;8.65;;;;;;;10.90;90.68;100096.34;5048316;28;20040;-42
2023/03/26 08:21:41;;;;;;;19.52;8.43;;;;;;;10.93;90.84;100087.34;5049841;28;20083;-41
2023/03/26 08:24:21;;;;;;;20.02;8.25;;;;;;;10.97;89.94;100081.97;5047937;28;20037;-42
2023/03/26 08:27:17;;;;;;;21.05;9.07;;;;;;;11.03;91.84;100086.22;5049670;28;20025;-43
2023/03/26 08:30:21;;;;;;;22.15;8.40;;;;;;;11.08;91.88;100085.25;5049032;28;20037;-41
2023/03/26 08:32:58;;;;;;;22.55;8.82;;;;;;;11.13;91.30;100084.25;5049158;28;20025;-41
2023/03/26 08:35:26;;;;;;;20.33;8.10;;;;;;;11.26;94.03;100085.19;5049118;28;20567;-41
2023/03/26 08:37:52;;;;;;;21.02;8.95;;;;;;;11.40;96.41;100083.03;5046800;28;20040;-43
2023/03/26 08:40:26;;;;;;;19.95;7.80;;;;;;;11.39;92.76;100079.47;5048708;28;20033;-41
2023/03/26 08:43:23;;;;;;;20.27;7.80;;;;;;;11.46;92.27;100076.19;5049587;28;20033;-42
2023/03/26 08:46:06;;;;;;;21.45;8.02;;;;;;;11.65;94.91;100084.09;5052101;28;20059;-41
2023/03/26 08:49:08;;;;;;;17.90;8.55;;;;;;;11.55;90.33;100081.69;5053314;28;20024;-41
2023/03/26 08:52:10;;;;;;;21.33;9.30;;;;;;;11.53;92.51;100076.47;5053269;28;20126;-41
2023/03/26 08:55:05;;;;;;;20.98;8.35;;;;;;;11.59;93.27;100081.81;5051937;28;20032;-41
2023/03/26 08:57:45;;;;;;;18.58;7.97;;;;;;;11.74;92.47;100072.97;5051567;28;20411;-42
2023/03/26 09:00:32;;;;;;;18.92;8.10;;;;;;;11.81;90.17;100076.03;5052510;28;20036;-43
2023/03/26 09:03:16;;;;;;;18.83;8.38;;;;;;;11.86;89.54;100075.84;5050973;28;20033;-42
2023/03/26 09:06:06;;;;;;;18.90;8.17;;;;;;;11.92;91.31;100070.13;5052452;28;20461;-42
2023/03/26 09:09:10;;;;;;;19.50;7.82;;;;;;;11.98;91.07;100069.63;5050451;28;20366;-41
2023/03/26 09:11:58;;;;;;;18.48;7.82;;;;;;;11.96;91.71;100065.50;5052941;28;20041;-42
2023/03/26 09:14:53;;;;;;;16.83;7.85;;;;;;;11.96;90.39;100063.56;5053365;28;20114;-43
2023/03/26 09:17:32;;;;;;;17.85;7.80;;;;;;;11.88;89.51;100061.66;5051573;28;20025;-41
2023/03/26 09:20:38;;;;;;;18.80;7.90;;;;;;;11.91;89.28;100060.19;5052928;28;20128;-41
2023/03/26 09:23:22;;;;;;;17.70;7.90;;;;;;;11.95;89.61;100061.13;5051036;28;20048;-41
2023/03/26 09:26:02;;;;;;;15.68;7.85;;;;;;;12.01;90.32;100062.59;5052933;28;20107;-43
2023/03/26 09:28:44;;;;;;;18.63;8.32;;;;;;;12.08;88.15;100056.53;5052798;28;20029;-43
2023/03/26 09:31:50;;;;;;;16.75;8.05;;;;;;;12.21;90.39;100054.66;5052488;28;20025;-43
2023/03/26 09:34:30;;;;;;;15.18;7.97;;;;;;;12.15;89.09;100059.56;5052749;28;20032;-42
2023/03/26 09:37:14;;;;;;;15.65;7.75;;;;;;;12.24;89.16;100053.94;5052589;28;20032;-42
2023/03/26 09:39:45;;;;;;;17.98;8.10;;;;;;;12.20;86.54;100055.78;5052617;28;20396;-41
2023/03/26 09:42:29;;;;;;;15.30;7.72;;;;;;;12.23;87.42;100055.13;5052695;28;20041;-42
2023/03/26 09:45:00;;;;;;;19.38;7.72;;;;;;;12.13;87.12;100057.16;5052497;28;20033;-43
2023/03/26 09:47:33;;;;;;;15.77;8.20;;;;;;;12.24;87.60;100057.56;5052115;28;20037;-42
2023/03/26 09:50:23;;;;;;;16.25;7.72;;;;;;;12.36;87.41;100053.25;5051160;28;20029;-42
2023/03/26 09:53:19;;;;;;;14.73;7.07;;;;;;;12.46;86.25;100053.63;5052544;28;20071;-42
2023/03/26 09:56:05;;;;;;;15.65;7.40;;;;;;;12.50;85.55;100051.00;5051633;28;20037;-43
2023/03/26 09:58:59;;;;;;;13.73;7.05;;;;;;;12.49;86.69;100052.13;5052249;28;20025;-43
2023/03/26 10:01:51;;;;;;;16.90;7.20;;;;;;;12.43;85.88;100053.50;5046116;28;20071;-43
2023/03/26 10:04:42;;;;;;;14.10;6.90;;;;;;;12.33;85.65;100061.06;5052217;28;20472;-42
2023/03/26 10:07:47;;;;;;;14.02;7.30;;;;;;;12.31;83.74;100052.28;5042561;28;20037;-41
2023/03/26 10:10:24;;;;;;;15.60;7.50;;;;;;;12.27;84.57;100054.13;5052024;28;20131;-41
2023/03/26 10:13:01;;;;;;;14.60;7.70;;;;;;;12.13;84.03;100050.78;5050309;28;20043;-42
2023/03/26 10:15:38;;;;;;;16.70;8.18;;;;;;;12.22;86.08;100057.06;5051888;28;20593;-42
2023/03/26 10:18:09;;;;;;;15.15;7.40;;;;;;;12.26;86.60;100055.25;5051929;28;20037;-43
2023/03/26 10:21:20;;;;;;;17.38;8.20;;;;;;;12.32;85.37;100053.09;5051676;28;20045;-43
2023/03/26 10:24:03;;;;;;;15.35;7.30;;;;;;;12.40;86.69;100056.94;5048526;28;20078;-44
2023/03/26 10:26:43;;;;;;;16.92;8.05;;;;;;;12.44;85.31;100063.44;5051167;28;20037;-42
2023/03/26 10:29:40;;;;;;;17.35;7.50;;;;;;;12.44;85.08;100064.25;5051585;28;20032;-41
2023/03/26 10:32:23;;;;;;;14.02;7.20;;;;;;;12.44;87.92;100055.94;5051597;28;20606;-41
2023/03/26 10:35:20;;;;;;;15.05;7.32;;;;;;;12.52;85.16;100064.50;5051643;28;20043;-42
2023/03/26 10:38:23;;;;;;;16.08;7.38;;;;;;;12.60;84.17;100069.22;5050153;28;20036;-41
2023/03/26 10:41:04;;;;;;;13.43;6.80;;;;;;;12.55;83.28;100067.44;5051590;28;20079;-42
2023/03/26 10:44:15;;;;;;;14.10;6.60;;;;;;;12.60;83.73;100064.47;5051421;28;20392;-43
2023/03/26 10:47:18;;;;;;;13.50;6.63;;;;;;;12.71;85.34;100077.94;5051446;28;20079;-41
2023/03/26 10:49:55;;;;;;;13.50;7.00;;;;;;;12.72;83.44;100071.22;5049722;28;20029;-41
2023/03/26 10:52:23;;;;;;;11.65;6.53;;;;;;;12.70;80.59;100070.75;5051013;28;20625;-41
2023/03/26 10:54:57;;;;;;;12.40;6.57;;;;;;;12.83;81.52;100068.84;5051028;28;20487;-42
2023/03/26 10:57:57;;;;;;;9.40;6.40;;;;;;;12.76;82.06;100078.53;5044572;28;20252;-41
2023/03/26 11:00:25;;;;;;;12.50;6.60;;;;;;;12.56;83.32;100073.81;5033251;28;20490;-43
2023/03/26 11:03:15;;;;;;;12.93;6.30;;;;;;;12.41;81.77;100081.59;5050381;28;20067;-42
2023/03/26 11:06:09;;;;;;;13.93;6.55;;;;;;;12.34;82.46;100084.06;5050810;28;20053;-41
2023/03/26 11:08:45;;;;;;;11.30;6.30;;;;;;;12.23;83.10;100082.84;5049705;28;20108;-42
2023/03/26 11:11:40;;;;;;;14.68;6.60;;;;;;;12.25;83.82;100077.75;5051116;28;20021;-41
2023/03/26 11:14:21;;;;;;;12.43;6.50;;;;;;;12.16;83.75;100086.16;5049901;28;20077;-44
2023/03/26 11:16:59;;;;;;;12.68;7.03;;;;;;;12.13;83.48;100082.09;5050631;28;20037;-41
2023/03/26 11:19:46;;;;;;;13.18;7.10;;;;;;;12.05;83.77;100090.47;5050622;28;20029;-41
2023/03/26 11:22:37;;;;;;;14.20;6.75;;;;;;;12.02;84.33;100089.16;5048673;28;20044;-41
2023/03/26 11:25:10;;;;;;;14.27;7.07;;;;;;;12.06;85.30;100086.53;5050917;28;20036;-41
2023/03/26 11:27:45;;;;;;;12.90;7.10;;;;;;;12.04;84.21;100095.19;5051069;28;20191;-41
2023/03/26 11:30:36;;;;;;;12.02;6.60;;;;;;;12.04;82.69;100097.16;5043223;28;20029;-42
2023/03/26 11:33:10;;;;;;;11.82;6.82;;;;;;;11.88;83.76;100099.63;5034786;28;20029;-41
2023/03/26 11:35:49;;;;;;;11.65;7.05;;;;;;;11.83;84.26;100100.63;5039224;28;20500;-41
2023/03/26 11:38:25;;;;;;;13.10;6.78;;;;;;;11.76;85.30;100103.91;5040535;28;20029;-41
2023/03/26 11:40:55;;;;;;;10.95;6.63;;;;;;;11.73;85.40;100104.59;5040082;28;20026;-41
2023/03/26 11:43:28;;;;;;;9.93;6.00;;;;;;;11.76;85.45;100097.56;5041085;28;20496;-40
2023/03/26 11:45:55;;;;;;;12.15;6.45;;;;;;;11.85;84.78;100099.16;5035625;28;20033;-41
2023/03/26 11:48:26;;;;;;;13.25;6.72;;;;;;;11.89;84.80;100104.03;5028991;28;20114;-41